Etretat — FIDP — position and weather

sailwx.info

Track history (hours):
 
Tides and Currents Weather Stations Pressure Air Temp Water Temp Dewpoint Dewpoint Depression Visibility Wind Speed Wind Dir Waves Ship Positions

Etretat

Last reported at 2016-May-27 09:33 UTC. Time now 2016-May-27 10:21 UTC.
Position N 50°49' W 001°06'.

Length 187 m; draft 6 m.

Type: Ship. MMSI: 228022900.

Date/timePositionNaut miles runAvg speedWind from/ knotsBaromVisibWave heightAir tempDewpointWater temp
2016-May-27 09:33N 50°49' W 001°06'0 0.0
2016-May-27 08:33N 50°49' W 001°06'0 0.0
2016-May-27 07:33N 50°49' W 001°06'0 0.0
2016-May-27 06:33N 50°49' W 001°06'0 0.0
2016-May-27 05:34N 50°49' W 001°06'0 0.0
2016-May-27 04:33N 50°49' W 001°06'0 0.0
2016-May-27 03:34N 50°49' W 001°06'0 0.0
2016-May-27 02:33N 50°49' W 001°06'0 0.0
2016-May-27 01:33N 50°49' W 001°06'0 0.0
2016-May-27 00:34N 50°49' W 001°06'0 0.0
2016-May-26 23:33N 50°49' W 001°06'0 0.0
2016-May-26 22:33N 50°49' W 001°06'0 0.0
2016-May-26 21:33N 50°49' W 001°06'0 0.0
2016-May-26 20:33N 50°49' W 001°06'0 0.0
2016-May-26 19:33N 50°49' W 001°06'0 0.0
2016-May-26 18:33N 50°49' W 001°06'0 0.0
2016-May-26 17:33N 50°49' W 001°06'0 0.0
2016-May-26 16:33N 50°49' W 001°06'0 0.0
2016-May-26 15:33N 50°49' W 001°06'0 0.0
2016-May-26 14:33N 50°49' W 001°06'0 0.0
2016-May-26 13:33N 50°49' W 001°06'0 0.0
2016-May-26 12:33N 50°49' W 001°06'0 0.0
2016-May-26 11:33N 50°49' W 001°06'0 0.0
2016-May-26 10:33N 50°49' W 001°06'0 0.0
2016-May-26 09:33N 50°49' W 001°06'0 0.0
2016-May-26 08:33N 50°49' W 001°06'0 0.0
2016-May-26 07:34N 50°49' W 001°06'0 0.0
2016-May-26 06:33N 50°49' W 001°06'0 0.0
2016-May-26 05:33N 50°49' W 001°06'0 0.0
2016-May-26 04:33N 50°49' W 001°06'0 0.0
2016-May-26 03:33N 50°49' W 001°06'0 0.0
2016-May-26 02:33N 50°49' W 001°06'0 0.0
2016-May-26 01:33N 50°49' W 001°06'0 0.0
2016-May-26 00:34N 50°49' W 001°06'0 0.0
2016-May-25 23:34N 50°49' W 001°06'0 0.0
2016-May-25 22:33N 50°49' W 001°06'0 0.1
2016-May-25 21:34N 50°49' W 001°06'0 0.1
2016-May-25 20:33N 50°49' W 001°06'1110.6
2016-May-25 19:33N 50°40' W 000°56'2119.7
2016-May-25 18:30N 50°22' W 000°39'2021.5
2016-May-25 17:33N 50°04' W 000°26'2221.9
2016-May-25 16:33N 49°45' W 000°09'1918.6
2016-May-25 15:33N 49°29' E 000°06'1 0.5
2016-May-25 14:33N 49°29' E 000°07'0 0.0
2016-May-25 13:33N 49°29' E 000°07'0 0.0
2016-May-25 12:33N 49°29' E 000°07'0 0.0
2016-May-25 11:33N 49°29' E 000°07'0 0.0
2016-May-25 10:33N 49°29' E 000°07'0 0.0
2016-May-25 09:33N 49°29' E 000°07'0 0.0
2016-May-25 08:33N 49°29' E 000°07'0 0.0
2016-May-25 07:33N 49°29' E 000°07'0 0.2
2016-May-25 06:33N 49°29' E 000°06'1111.4
2016-May-25 05:33N 49°37' W 000°06'1313.0
2016-May-25 04:33N 49°49' W 000°15'1212.4
2016-May-25 03:33N 49°60' W 000°24'3112.6
2016-May-25 01:05N 50°27' W 000°47'712.9
2016-May-25 00:33N 50°33' W 000°52'1312.7
2016-May-24 23:33N 50°44' W 001°03'5 5.2
2016-May-24 22:34N 50°49' W 001°06'0 0.0
2016-May-24 21:33N 50°49' W 001°06'0 0.1
2016-May-24 20:34N 50°49' W 001°06'1110.6
2016-May-24 19:34N 50°40' W 000°56'1918.7
2016-May-24 18:33N 50°23' W 000°42'2020.0
2016-May-24 17:33N 50°06' W 000°27'2120.8
2016-May-24 16:33N 49°47' W 000°13'2020.3
2016-May-24 15:33N 49°30' E 000°03'3 2.7
2016-May-24 14:33N 49°29' E 000°07'0 0.0
2016-May-24 13:33N 49°29' E 000°07'0 0.0
2016-May-24 12:33N 49°29' E 000°07'0 0.0
2016-May-24 11:34N 49°29' E 000°07'0 0.0
2016-May-24 10:33N 49°29' E 000°07'0 0.0
2016-May-24 09:33N 49°29' E 000°07'0 0.0
2016-May-24 08:33N 49°29' E 000°07'0 0.0
2016-May-24 07:33N 49°29' E 000°07'0 0.0
2016-May-24 06:33N 49°29' E 000°07'9 9.4
2016-May-24 05:33N 49°36' W 000°04'1312.4
2016-May-24 04:33N 49°47' W 000°12'1212.2
2016-May-24 03:33N 49°58' W 000°21'1212.3
2016-May-24 02:33N 50°08' W 000°31'1212.2
2016-May-24 01:33N 50°18' W 000°42'1413.8
2016-May-24 00:33N 50°31' W 000°50'1312.9
2016-May-23 23:34N 50°42' W 000°59'8 7.6
2016-May-23 22:33N 50°49' W 001°06'0 0.0
2016-May-23 21:33N 50°49' W 001°06'0 0.1
2016-May-23 20:33N 50°49' W 001°06'1010.4
2016-May-23 19:34N 50°40' W 000°58'1918.6
2016-May-23 18:34N 50°24' W 000°43'2120.9
2016-May-23 17:34N 50°05' W 000°28'2120.6
2016-May-23 16:33N 49°47' W 000°13'2019.5
2016-May-23 15:33N 49°30' E 000°02'3 3.1
2016-May-23 14:34N 49°29' E 000°07'0 0.0
2016-May-23 13:33N 49°29' E 000°07'0 0.0
2016-May-23 12:34N 49°29' E 000°07'0 0.0
2016-May-23 11:34N 49°29' E 000°07'0 0.0
2016-May-23 10:33N 49°29' E 000°07'0 0.0
2016-May-23 09:33N 49°29' E 000°07'0 0.0
2016-May-23 08:34N 49°29' E 000°07'0 0.0
2016-May-23 07:33N 49°29' E 000°07'0 0.0
2016-May-23 06:33N 49°29' E 000°07'9 9.1
2016-May-23 05:33N 49°36' W 000°02'4 3.8
2016-May-23 04:33N 49°40' W 000°03'8 7.8
2016-May-23 03:34N 49°46' W 000°11'1615.5
2016-May-23 02:34N 49°59' W 000°24'1515.2
2016-May-23 01:33N 50°12' W 000°37'1916.0
2016-May-23 00:23N 50°29' W 000°48'1316.0
2016-May-22 23:34N 50°40' W 000°58'10 9.6
2016-May-22 22:33N 50°49' W 001°06'0 0.0
2016-May-22 21:33N 50°49' W 001°06'2 2.0
2016-May-22 20:33N 50°47' W 001°06'9 8.6
2016-May-22 19:34N 50°39' W 000°58'2019.8
2016-May-22 18:33N 50°23' W 000°42'1919.5
2016-May-22 17:33N 50°05' W 000°29'2020.3
2016-May-22 16:33N 49°47' W 000°13'2019.8
2016-May-22 15:34N 49°30' E 000°02'3 3.4
2016-May-22 14:33N 49°29' E 000°07'0 0.0
2016-May-22 13:33N 49°29' E 000°07'0 0.0
2016-May-22 12:33N 49°29' E 000°07'0 0.0
2016-May-22 11:33N 49°29' E 000°07'0 0.0
2016-May-22 10:33N 49°29' E 000°07'0 0.0
2016-May-22 09:33N 49°29' E 000°07'0 0.0
2016-May-22 08:33N 49°29' E 000°07'0 0.0
2016-May-22 07:33N 49°29' E 000°07'0 0.0
2016-May-22 06:33N 49°29' E 000°07'1010.4
2016-May-22 05:34N 49°37' W 000°03'1 0.9
2016-May-22 04:33N 49°38' W 000°03'9 8.8
2016-May-22 03:34N 49°45' W 000°11'1515.0
2016-May-22 02:33N 49°58' W 000°24'1414.4
2016-May-22 01:34N 50°09' W 000°38'1414.3
2016-May-22 00:34N 50°23' W 000°42'1615.6
2016-May-21 23:34N 50°37' W 000°54'1313.1
2016-May-21 22:34N 50°47' W 001°06'2 1.6
2016-May-21 21:34N 50°49' W 001°06'0 0.1
2016-May-21 20:34N 50°49' W 001°06'1010.4
2016-May-21 19:33N 50°40' W 000°56'2019.1
2016-May-21 18:30N 50°23' W 000°40'1819.5
2016-May-21 17:34N 50°06' W 000°28'1919.4
2016-May-21 16:33N 49°49' W 000°14'2020.0
2016-May-21 15:33N 49°31' E 000°00'5 4.6
2016-May-21 14:34N 49°29' E 000°07'0 0.0
2016-May-21 13:33N 49°29' E 000°07'0 0.0
2016-May-21 12:33N 49°29' E 000°07'0 0.0
2016-May-21 11:33N 49°29' E 000°07'0 0.0
2016-May-21 10:33N 49°29' E 000°07'0 0.0
2016-May-21 09:33N 49°29' E 000°07'0 0.0
2016-May-21 08:33N 49°29' E 000°07'0 0.0
2016-May-21 07:34N 49°29' E 000°07'0 0.0
2016-May-21 06:33N 49°29' E 000°07'8 8.3
2016-May-21 05:34N 49°35' W 000°02'3 3.4
2016-May-21 04:33N 49°38' W 000°04'8 7.5
2016-May-21 03:34N 49°45' W 000°10'1514.8
2016-May-21 02:34N 49°58' W 000°22'1414.2
2016-May-21 01:33N 50°09' W 000°35'2114.5
2016-May-21 00:05N 50°29' W 000°48'814.4
2016-May-20 23:33N 50°36' W 000°53'1313.0
2016-May-20 22:34N 50°46' W 001°05'3 2.7
2016-May-20 21:33N 50°49' W 001°06'0 0.0
2016-May-20 20:34N 50°49' W 001°06'0 0.0
2016-May-20 19:34N 50°49' W 001°06'0 0.0
2016-May-20 18:34N 50°49' W 001°06'0 0.0
2016-May-20 17:34N 50°49' W 001°06'1 0.7
2016-May-20 16:33N 50°48' W 001°07'6 5.9
2016-May-20 15:33N 50°43' W 001°02'8 7.9
2016-May-20 14:33N 50°38' W 000°53'7 6.5
2016-May-20 13:33N 50°43' W 000°59'7 7.2
2016-May-20 12:33N 50°49' W 001°06'0 0.0
2016-May-20 11:33N 50°49' W 001°06'0 0.0
2016-May-20 10:33N 50°49' W 001°06'0 0.0
2016-May-20 09:33N 50°49' W 001°06'0 0.0
2016-May-20 08:33N 50°49' W 001°06'0 0.0
2016-May-20 07:33N 50°49' W 001°06'0 0.0
2016-May-20 06:33N 50°49' W 001°06'0 0.0
2016-May-20 05:33N 50°49' W 001°06'0 0.0
2016-May-20 04:33N 50°49' W 001°06'0 0.0
2016-May-20 03:33N 50°49' W 001°06'0 0.0
2016-May-20 02:33N 50°49' W 001°06'0 0.0
2016-May-20 01:33N 50°49' W 001°06'0 0.0
2016-May-20 00:34N 50°49' W 001°06'0 0.0
2016-May-19 23:34N 50°49' W 001°06'0 0.0
2016-May-19 22:33N 50°49' W 001°06'0 0.0
2016-May-19 21:33N 50°49' W 001°06'0 0.0
2016-May-19 20:33N 50°49' W 001°06'0 0.0
2016-May-19 19:34N 50°49' W 001°06'0 0.0
2016-May-19 18:33N 50°49' W 001°06'0 0.0
2016-May-19 17:33N 50°49' W 001°06'0 0.0
2016-May-19 16:33N 50°49' W 001°06'6 6.3
2016-May-19 15:34N 50°43' W 001°01'1817.7
2016-May-19 14:34N 50°29' W 001°18'2721.0
2016-May-19 13:15N 50°12' W 001°52'3519.9
2016-May-19 11:30N 49°53' W 002°37'2020.8
2016-May-19 10:33N 49°43' W 003°04'2121.3
2016-May-19 09:33N 49°28' W 003°27'4921.2
2016-May-19 07:15N 48°54' W 004°21'1521.0
2016-May-19 06:33N 48°44' W 004°37'2120.9
2016-May-19 05:34N 48°29' W 004°58'1918.5
2016-May-19 04:33N 48°12' W 005°12'2120.5
2016-May-19 03:33N 47°52' W 005°09'4220.5
2016-May-19 01:32N 47°12' W 004°50'43 1.5
2016-May-17 21:33N 47°54' W 005°07'2120.8
2016-May-17 20:33N 48°14' W 005°10'1918.6
2016-May-17 19:33N 48°30' W 004°55'2222.3
2016-May-17 18:33N 48°47' W 004°33'5221.1
2016-May-17 16:06N 49°26' W 003°41'1120.2
2016-May-17 15:33N 49°34' W 003°29'2020.0
2016-May-17 14:33N 49°49' W 003°09'2019.8
2016-May-17 13:33N 50°00' W 002°43'2421.3
2016-May-17 12:25N 50°11' W 002°10'4322.5
2016-May-17 10:31N 50°34' W 001°13'1414.5
2016-May-17 09:34N 50°47' W 001°06'  
Track history (hours):
 
Tides and Currents Weather Stations Pressure Air Temp Water Temp Dewpoint Dewpoint Depression Visibility Wind Speed Wind Dir Waves Ship Positions

Etretat

Last reported at 2016-May-27 09:33 UTC. Time now 2016-May-27 10:21 UTC.
Position N 50°49' W 001°06'.

Length 187 m; draft 6 m.

Type: Ship. MMSI: 228022900.

Date/timePositionNaut miles runAvg speedWind from/ knotsBaromVisibWave heightAir tempDewpointWater temp
2016-May-27 09:33N 50°49' W 001°06'0 0.0
2016-May-27 08:33N 50°49' W 001°06'0 0.0
2016-May-27 07:33N 50°49' W 001°06'0 0.0
2016-May-27 06:33N 50°49' W 001°06'0 0.0
2016-May-27 05:34N 50°49' W 001°06'0 0.0
2016-May-27 04:33N 50°49' W 001°06'0 0.0
2016-May-27 03:34N 50°49' W 001°06'0 0.0
2016-May-27 02:33N 50°49' W 001°06'0 0.0
2016-May-27 01:33N 50°49' W 001°06'0 0.0
2016-May-27 00:34N 50°49' W 001°06'0 0.0
2016-May-26 23:33N 50°49' W 001°06'0 0.0
2016-May-26 22:33N 50°49' W 001°06'0 0.0
2016-May-26 21:33N 50°49' W 001°06'0 0.0
2016-May-26 20:33N 50°49' W 001°06'0 0.0
2016-May-26 19:33N 50°49' W 001°06'0 0.0
2016-May-26 18:33N 50°49' W 001°06'0 0.0
2016-May-26 17:33N 50°49' W 001°06'0 0.0
2016-May-26 16:33N 50°49' W 001°06'0 0.0
2016-May-26 15:33N 50°49' W 001°06'0 0.0
2016-May-26 14:33N 50°49' W 001°06'0 0.0
2016-May-26 13:33N 50°49' W 001°06'0 0.0
2016-May-26 12:33N 50°49' W 001°06'0 0.0
2016-May-26 11:33N 50°49' W 001°06'0 0.0
2016-May-26 10:33N 50°49' W 001°06'0 0.0
2016-May-26 09:33N 50°49' W 001°06'0 0.0
2016-May-26 08:33N 50°49' W 001°06'0 0.0
2016-May-26 07:34N 50°49' W 001°06'0 0.0
2016-May-26 06:33N 50°49' W 001°06'0 0.0
2016-May-26 05:33N 50°49' W 001°06'0 0.0
2016-May-26 04:33N 50°49' W 001°06'0 0.0
2016-May-26 03:33N 50°49' W 001°06'0 0.0
2016-May-26 02:33N 50°49' W 001°06'0 0.0
2016-May-26 01:33N 50°49' W 001°06'0 0.0
2016-May-26 00:34N 50°49' W 001°06'0 0.0
2016-May-25 23:34N 50°49' W 001°06'0 0.0
2016-May-25 22:33N 50°49' W 001°06'0 0.1
2016-May-25 21:34N 50°49' W 001°06'0 0.1
2016-May-25 20:33N 50°49' W 001°06'1110.6
2016-May-25 19:33N 50°40' W 000°56'2119.7
2016-May-25 18:30N 50°22' W 000°39'2021.5
2016-May-25 17:33N 50°04' W 000°26'2221.9
2016-May-25 16:33N 49°45' W 000°09'1918.6
2016-May-25 15:33N 49°29' E 000°06'1 0.5
2016-May-25 14:33N 49°29' E 000°07'0 0.0
2016-May-25 13:33N 49°29' E 000°07'0 0.0
2016-May-25 12:33N 49°29' E 000°07'0 0.0
2016-May-25 11:33N 49°29' E 000°07'0 0.0
2016-May-25 10:33N 49°29' E 000°07'0 0.0
2016-May-25 09:33N 49°29' E 000°07'0 0.0
2016-May-25 08:33N 49°29' E 000°07'0 0.0
2016-May-25 07:33N 49°29' E 000°07'0 0.2
2016-May-25 06:33N 49°29' E 000°06'1111.4
2016-May-25 05:33N 49°37' W 000°06'1313.0
2016-May-25 04:33N 49°49' W 000°15'1212.4
2016-May-25 03:33N 49°60' W 000°24'3112.6
2016-May-25 01:05N 50°27' W 000°47'712.9
2016-May-25 00:33N 50°33' W 000°52'1312.7
2016-May-24 23:33N 50°44' W 001°03'5 5.2
2016-May-24 22:34N 50°49' W 001°06'0 0.0
2016-May-24 21:33N 50°49' W 001°06'0 0.1
2016-May-24 20:34N 50°49' W 001°06'1110.6
2016-May-24 19:34N 50°40' W 000°56'1918.7
2016-May-24 18:33N 50°23' W 000°42'2020.0
2016-May-24 17:33N 50°06' W 000°27'2120.8
2016-May-24 16:33N 49°47' W 000°13'2020.3
2016-May-24 15:33N 49°30' E 000°03'3 2.7
2016-May-24 14:33N 49°29' E 000°07'0 0.0
2016-May-24 13:33N 49°29' E 000°07'0 0.0
2016-May-24 12:33N 49°29' E 000°07'0 0.0
2016-May-24 11:34N 49°29' E 000°07'0 0.0
2016-May-24 10:33N 49°29' E 000°07'0 0.0
2016-May-24 09:33N 49°29' E 000°07'0 0.0
2016-May-24 08:33N 49°29' E 000°07'0 0.0
2016-May-24 07:33N 49°29' E 000°07'0 0.0
2016-May-24 06:33N 49°29' E 000°07'9 9.4
2016-May-24 05:33N 49°36' W 000°04'1312.4
2016-May-24 04:33N 49°47' W 000°12'1212.2
2016-May-24 03:33N 49°58' W 000°21'1212.3
2016-May-24 02:33N 50°08' W 000°31'1212.2
2016-May-24 01:33N 50°18' W 000°42'1413.8
2016-May-24 00:33N 50°31' W 000°50'1312.9
2016-May-23 23:34N 50°42' W 000°59'8 7.6
2016-May-23 22:33N 50°49' W 001°06'0 0.0
2016-May-23 21:33N 50°49' W 001°06'0 0.1
2016-May-23 20:33N 50°49' W 001°06'1010.4
2016-May-23 19:34N 50°40' W 000°58'1918.6
2016-May-23 18:34N 50°24' W 000°43'2120.9
2016-May-23 17:34N 50°05' W 000°28'2120.6
2016-May-23 16:33N 49°47' W 000°13'2019.5
2016-May-23 15:33N 49°30' E 000°02'3 3.1
2016-May-23 14:34N 49°29' E 000°07'0 0.0
2016-May-23 13:33N 49°29' E 000°07'0 0.0
2016-May-23 12:34N 49°29' E 000°07'0 0.0
2016-May-23 11:34N 49°29' E 000°07'0 0.0
2016-May-23 10:33N 49°29' E 000°07'0 0.0
2016-May-23 09:33N 49°29' E 000°07'0 0.0
2016-May-23 08:34N 49°29' E 000°07'0 0.0
2016-May-23 07:33N 49°29' E 000°07'0 0.0
2016-May-23 06:33N 49°29' E 000°07'9 9.1
2016-May-23 05:33N 49°36' W 000°02'4 3.8
2016-May-23 04:33N 49°40' W 000°03'8 7.8
2016-May-23 03:34N 49°46' W 000°11'1615.5
2016-May-23 02:34N 49°59' W 000°24'1515.2
2016-May-23 01:33N 50°12' W 000°37'1916.0
2016-May-23 00:23N 50°29' W 000°48'1316.0
2016-May-22 23:34N 50°40' W 000°58'10 9.6
2016-May-22 22:33N 50°49' W 001°06'0 0.0
2016-May-22 21:33N 50°49' W 001°06'2 2.0
2016-May-22 20:33N 50°47' W 001°06'9 8.6
2016-May-22 19:34N 50°39' W 000°58'2019.8
2016-May-22 18:33N 50°23' W 000°42'1919.5
2016-May-22 17:33N 50°05' W 000°29'2020.3
2016-May-22 16:33N 49°47' W 000°13'2019.8
2016-May-22 15:34N 49°30' E 000°02'3 3.4
2016-May-22 14:33N 49°29' E 000°07'0 0.0
2016-May-22 13:33N 49°29' E 000°07'0 0.0
2016-May-22 12:33N 49°29' E 000°07'0 0.0
2016-May-22 11:33N 49°29' E 000°07'0 0.0
2016-May-22 10:33N 49°29' E 000°07'0 0.0
2016-May-22 09:33N 49°29' E 000°07'0 0.0
2016-May-22 08:33N 49°29' E 000°07'0 0.0
2016-May-22 07:33N 49°29' E 000°07'0 0.0
2016-May-22 06:33N 49°29' E 000°07'1010.4
2016-May-22 05:34N 49°37' W 000°03'1 0.9
2016-May-22 04:33N 49°38' W 000°03'9 8.8
2016-May-22 03:34N 49°45' W 000°11'1515.0
2016-May-22 02:33N 49°58' W 000°24'1414.4
2016-May-22 01:34N 50°09' W 000°38'1414.3
2016-May-22 00:34N 50°23' W 000°42'1615.6
2016-May-21 23:34N 50°37' W 000°54'1313.1
2016-May-21 22:34N 50°47' W 001°06'2 1.6
2016-May-21 21:34N 50°49' W 001°06'0 0.1
2016-May-21 20:34N 50°49' W 001°06'1010.4
2016-May-21 19:33N 50°40' W 000°56'2019.1
2016-May-21 18:30N 50°23' W 000°40'1819.5
2016-May-21 17:34N 50°06' W 000°28'1919.4
2016-May-21 16:33N 49°49' W 000°14'2020.0
2016-May-21 15:33N 49°31' E 000°00'5 4.6
2016-May-21 14:34N 49°29' E 000°07'0 0.0
2016-May-21 13:33N 49°29' E 000°07'0 0.0
2016-May-21 12:33N 49°29' E 000°07'0 0.0
2016-May-21 11:33N 49°29' E 000°07'0 0.0
2016-May-21 10:33N 49°29' E 000°07'0 0.0
2016-May-21 09:33N 49°29' E 000°07'0 0.0
2016-May-21 08:33N 49°29' E 000°07'0 0.0
2016-May-21 07:34N 49°29' E 000°07'0 0.0
2016-May-21 06:33N 49°29' E 000°07'8 8.3
2016-May-21 05:34N 49°35' W 000°02'3 3.4
2016-May-21 04:33N 49°38' W 000°04'8 7.5
2016-May-21 03:34N 49°45' W 000°10'1514.8
2016-May-21 02:34N 49°58' W 000°22'1414.2
2016-May-21 01:33N 50°09' W 000°35'2114.5
2016-May-21 00:05N 50°29' W 000°48'814.4
2016-May-20 23:33N 50°36' W 000°53'1313.0
2016-May-20 22:34N 50°46' W 001°05'3 2.7
2016-May-20 21:33N 50°49' W 001°06'0 0.0
2016-May-20 20:34N 50°49' W 001°06'0 0.0
2016-May-20 19:34N 50°49' W 001°06'0 0.0
2016-May-20 18:34N 50°49' W 001°06'0 0.0
2016-May-20 17:34N 50°49' W 001°06'1 0.7
2016-May-20 16:33N 50°48' W 001°07'6 5.9
2016-May-20 15:33N 50°43' W 001°02'8 7.9
2016-May-20 14:33N 50°38' W 000°53'7 6.5
2016-May-20 13:33N 50°43' W 000°59'7 7.2
2016-May-20 12:33N 50°49' W 001°06'0 0.0
2016-May-20 11:33N 50°49' W 001°06'0 0.0
2016-May-20 10:33N 50°49' W 001°06'0 0.0
2016-May-20 09:33N 50°49' W 001°06'0 0.0
2016-May-20 08:33N 50°49' W 001°06'0 0.0
2016-May-20 07:33N 50°49' W 001°06'0 0.0
2016-May-20 06:33N 50°49' W 001°06'0 0.0
2016-May-20 05:33N 50°49' W 001°06'0 0.0
2016-May-20 04:33N 50°49' W 001°06'0 0.0
2016-May-20 03:33N 50°49' W 001°06'0 0.0
2016-May-20 02:33N 50°49' W 001°06'0 0.0
2016-May-20 01:33N 50°49' W 001°06'0 0.0
2016-May-20 00:34N 50°49' W 001°06'0 0.0
2016-May-19 23:34N 50°49' W 001°06'0 0.0
2016-May-19 22:33N 50°49' W 001°06'0 0.0
2016-May-19 21:33N 50°49' W 001°06'0 0.0
2016-May-19 20:33N 50°49' W 001°06'0 0.0
2016-May-19 19:34N 50°49' W 001°06'0 0.0
2016-May-19 18:33N 50°49' W 001°06'0 0.0
2016-May-19 17:33N 50°49' W 001°06'0 0.0
2016-May-19 16:33N 50°49' W 001°06'6 6.3
2016-May-19 15:34N 50°43' W 001°01'1817.7
2016-May-19 14:34N 50°29' W 001°18'2721.0
2016-May-19 13:15N 50°12' W 001°52'3519.9
2016-May-19 11:30N 49°53' W 002°37'2020.8
2016-May-19 10:33N 49°43' W 003°04'2121.3
2016-May-19 09:33N 49°28' W 003°27'4921.2
2016-May-19 07:15N 48°54' W 004°21'1521.0
2016-May-19 06:33N 48°44' W 004°37'2120.9
2016-May-19 05:34N 48°29' W 004°58'1918.5
2016-May-19 04:33N 48°12' W 005°12'2120.5
2016-May-19 03:33N 47°52' W 005°09'4220.5
2016-May-19 01:32N 47°12' W 004°50'43 1.5
2016-May-17 21:33N 47°54' W 005°07'2120.8
2016-May-17 20:33N 48°14' W 005°10'1918.6
2016-May-17 19:33N 48°30' W 004°55'2222.3
2016-May-17 18:33N 48°47' W 004°33'5221.1
2016-May-17 16:06N 49°26' W 003°41'1120.2
2016-May-17 15:33N 49°34' W 003°29'2020.0
2016-May-17 14:33N 49°49' W 003°09'2019.8
2016-May-17 13:33N 50°00' W 002°43'2421.3
2016-May-17 12:25N 50°11' W 002°10'4322.5
2016-May-17 10:31N 50°34' W 001°13'1414.5
2016-May-17 09:34N 50°47' W 001°06'  

Dump ship's entire track history